createdAt,value
2023-02-06T00:00:51.511Z,3.06
2023-02-06T00:03:18.241Z,3.04
2023-02-06T00:05:54.108Z,3.03
2023-02-06T00:08:20.571Z,3.01
2023-02-06T00:10:47.093Z,3.02
2023-02-06T00:13:13.596Z,3.00
2023-02-06T00:15:40.227Z,2.99
2023-02-06T00:18:06.719Z,2.98
2023-02-06T00:20:33.303Z,2.98
2023-02-06T00:22:59.751Z,2.98
2023-02-06T00:25:26.225Z,2.95
2023-02-06T00:27:52.707Z,2.93
2023-02-06T00:30:19.272Z,2.92
2023-02-06T00:32:45.874Z,2.90
2023-02-06T00:35:12.748Z,2.90
2023-02-06T00:37:39.248Z,2.85
2023-02-06T00:40:06.240Z,2.78
2023-02-06T00:42:32.732Z,2.74
2023-02-06T00:44:59.132Z,2.82
2023-02-06T00:47:25.700Z,2.86
2023-02-06T00:49:52.171Z,2.89
2023-02-06T00:52:18.658Z,2.93
2023-02-06T00:54:45.118Z,2.96
2023-02-06T00:57:11.596Z,2.99
2023-02-06T00:59:38.128Z,2.98
2023-02-06T01:02:04.606Z,3.03
2023-02-06T01:04:31.380Z,3.02
2023-02-06T01:06:57.983Z,3.05
2023-02-06T01:09:24.560Z,3.05
2023-02-06T01:11:51.096Z,3.08
2023-02-06T01:14:17.899Z,3.09
2023-02-06T01:16:44.414Z,3.13
2023-02-06T01:19:10.975Z,3.15
2023-02-06T01:21:37.454Z,3.15
2023-02-06T01:24:04.078Z,3.20
2023-02-06T01:26:30.591Z,3.19
2023-02-06T01:28:57.344Z,3.21
2023-02-06T01:31:29.191Z,3.20
2023-02-06T01:33:58.531Z,3.16
2023-02-06T01:36:25.973Z,3.19
2023-02-06T01:38:53.036Z,3.19
2023-02-06T01:41:22.847Z,3.18
2023-02-06T01:44:08.118Z,3.19
2023-02-06T01:46:34.694Z,3.23
2023-02-06T01:49:01.991Z,3.25
2023-02-06T01:51:30.528Z,3.29
2023-02-06T01:54:06.640Z,3.35
2023-02-06T01:56:53.623Z,3.36
2023-02-06T01:59:21.021Z,3.40
2023-02-06T02:01:47.601Z,3.41
2023-02-06T02:04:18.220Z,3.41
2023-02-06T02:06:52.371Z,3.40
2023-02-06T02:09:19.787Z,3.39
2023-02-06T02:11:46.336Z,3.38
2023-02-06T02:14:15.424Z,3.34
2023-02-06T02:17:05.358Z,3.33
2023-02-06T02:19:50.611Z,3.30
2023-02-06T02:22:23.364Z,3.30
2023-02-06T02:25:08.998Z,3.26
2023-02-06T02:27:54.263Z,3.20
2023-02-06T02:30:51.834Z,3.17
2023-02-06T02:33:33.525Z,3.10
2023-02-06T02:36:12.496Z,3.03
2023-02-06T02:39:03.233Z,2.99
2023-02-06T02:41:49.962Z,2.96
2023-02-06T02:44:35.744Z,2.93
2023-02-06T02:47:07.114Z,2.90
2023-02-06T02:49:36.664Z,2.87
2023-02-06T02:52:04.220Z,2.83
2023-02-06T02:54:31.139Z,2.81
2023-02-06T02:57:06.030Z,2.76
2023-02-06T02:59:36.723Z,2.71
2023-02-06T03:02:07.948Z,2.67
2023-02-06T03:04:40.747Z,2.64
2023-02-06T03:07:35.076Z,2.60
2023-02-06T03:10:22.948Z,2.54
2023-02-06T03:12:58.333Z,2.45
2023-02-06T03:15:35.126Z,2.37
2023-02-06T03:18:10.461Z,2.32
2023-02-06T03:20:41.271Z,2.26
2023-02-06T03:23:08.440Z,2.20
2023-02-06T03:25:41.637Z,2.17
2023-02-06T03:28:17.528Z,2.12
2023-02-06T03:30:46.452Z,2.08
2023-02-06T03:33:17.507Z,2.01
2023-02-06T03:35:44.186Z,1.98
2023-02-06T03:38:10.983Z,1.90
2023-02-06T03:40:39.580Z,1.81
2023-02-06T03:43:07.845Z,1.73
2023-02-06T03:45:39.528Z,1.68
2023-02-06T03:48:11.625Z,1.70
2023-02-06T03:50:41.937Z,1.75
2023-02-06T03:53:11.736Z,1.76
2023-02-06T03:55:41.088Z,1.70
2023-02-06T03:58:13.414Z,1.65
2023-02-06T04:00:43.120Z,1.65
2023-02-06T04:03:11.164Z,1.64
2023-02-06T04:05:38.190Z,1.65
2023-02-06T04:08:05.395Z,1.56
2023-02-06T04:10:32.086Z,1.53
2023-02-06T04:12:58.599Z,1.51
2023-02-06T04:15:25.090Z,1.54
2023-02-06T04:17:59.993Z,1.56
2023-02-06T04:20:28.103Z,1.55
2023-02-06T04:22:54.639Z,1.56
2023-02-06T04:25:21.094Z,1.58
2023-02-06T04:27:47.641Z,1.57
2023-02-06T04:30:15.641Z,1.54
2023-02-06T04:32:42.238Z,1.50
2023-02-06T04:35:08.981Z,1.50
2023-02-06T04:37:36.052Z,1.46
2023-02-06T04:40:02.539Z,1.45
2023-02-06T04:42:29.082Z,1.45
2023-02-06T04:44:55.734Z,1.43
2023-02-06T04:47:22.248Z,1.42
2023-02-06T04:49:48.712Z,1.42
2023-02-06T04:52:15.398Z,1.41
2023-02-06T04:54:41.840Z,1.45
2023-02-06T04:57:08.411Z,1.41
2023-02-06T04:59:34.917Z,1.41
2023-02-06T05:02:01.865Z,1.45
2023-02-06T05:04:28.444Z,1.47
2023-02-06T05:06:54.941Z,1.44
2023-02-06T05:09:21.511Z,1.43
2023-02-06T05:11:48.015Z,1.43
2023-02-06T05:14:14.516Z,1.41
2023-02-06T05:16:40.976Z,1.39
2023-02-06T05:19:07.538Z,1.37
2023-02-06T05:21:34.100Z,1.32
2023-02-06T05:24:00.589Z,1.29
2023-02-06T05:26:27.212Z,1.24
2023-02-06T05:28:53.668Z,1.21
2023-02-06T05:31:20.566Z,1.23
2023-02-06T05:33:52.538Z,1.20
2023-02-06T05:36:20.427Z,1.17
2023-02-06T05:38:47.925Z,1.17
2023-02-06T05:41:15.511Z,1.13
2023-02-06T05:43:42.064Z,1.14
2023-02-06T05:46:08.963Z,1.16
2023-02-06T05:48:35.573Z,1.16
2023-02-06T05:51:02.351Z,1.17
2023-02-06T05:53:28.875Z,1.17
2023-02-06T05:55:56.037Z,1.15
2023-02-06T05:58:22.655Z,1.17
2023-02-06T06:00:49.113Z,1.19
2023-02-06T06:03:15.618Z,1.20
2023-02-06T06:05:42.201Z,1.22
2023-02-06T06:08:08.693Z,1.20
2023-02-06T06:10:35.375Z,1.18
2023-02-06T06:13:01.874Z,1.16
2023-02-06T06:15:28.508Z,1.15
2023-02-06T06:17:55.042Z,1.11
2023-02-06T06:20:21.697Z,1.13
2023-02-06T06:22:48.258Z,1.15
2023-02-06T06:25:14.751Z,1.15
2023-02-06T06:27:41.211Z,1.17
2023-02-06T06:30:08.560Z,1.19
2023-02-06T06:32:35.116Z,1.20
2023-02-06T06:35:01.756Z,1.18
2023-02-06T06:37:28.282Z,1.13
2023-02-06T06:39:54.768Z,1.13
2023-02-06T06:42:21.234Z,1.15
2023-02-06T06:44:47.788Z,1.17
2023-02-06T06:47:14.287Z,1.17
2023-02-06T06:49:40.732Z,1.19
2023-02-06T06:52:19.553Z,1.17
2023-02-06T06:54:52.353Z,1.18
2023-02-06T06:57:19.298Z,1.16
2023-02-06T06:59:45.835Z,1.17
2023-02-06T07:02:12.352Z,1.14
2023-02-06T07:04:38.894Z,1.15
2023-02-06T07:07:05.512Z,1.17
2023-02-06T07:09:32.057Z,1.14
2023-02-06T07:11:58.635Z,1.13
2023-02-06T07:14:25.272Z,1.15
2023-02-06T07:16:51.800Z,1.18
2023-02-06T07:19:18.292Z,1.17
2023-02-06T07:21:44.771Z,1.19
2023-02-06T07:24:11.283Z,1.23
2023-02-06T07:26:37.841Z,1.25
2023-02-06T07:29:04.396Z,1.30
2023-02-06T07:31:31.074Z,1.32
2023-02-06T07:33:57.694Z,1.36
2023-02-06T07:36:24.189Z,1.40
2023-02-06T07:38:50.660Z,1.43
2023-02-06T07:41:18.303Z,1.46
2023-02-06T07:43:44.785Z,1.47
2023-02-06T07:46:11.508Z,1.51
2023-02-06T07:48:38.030Z,1.55
2023-02-06T07:51:06.977Z,1.59
2023-02-06T07:53:34.075Z,1.65
2023-02-06T07:56:00.601Z,1.70
2023-02-06T07:58:27.620Z,1.76
2023-02-06T08:00:54.967Z,1.80
2023-02-06T08:03:21.598Z,1.85
2023-02-06T08:05:48.066Z,1.88
2023-02-06T08:08:14.520Z,1.92
2023-02-06T08:10:41.007Z,1.95
2023-02-06T08:13:08.000Z,2.00
2023-02-06T08:15:35.057Z,2.05
2023-02-06T08:18:01.884Z,2.12
2023-02-06T08:20:28.432Z,2.17
2023-02-06T08:22:55.085Z,2.26
2023-02-06T08:25:21.743Z,2.34
2023-02-06T08:27:52.433Z,2.43
2023-02-06T08:30:19.096Z,2.52
2023-02-06T08:32:45.599Z,2.60
2023-02-06T08:35:12.245Z,2.63
2023-02-06T08:37:38.946Z,2.74
2023-02-06T08:40:05.950Z,2.84
2023-02-06T08:42:32.459Z,2.93
2023-02-06T08:44:58.999Z,3.06
2023-02-06T08:47:25.536Z,3.14
2023-02-06T08:49:52.047Z,3.17
2023-02-06T08:52:18.953Z,3.25
2023-02-06T08:54:45.441Z,3.32
2023-02-06T08:57:12.999Z,3.41
2023-02-06T08:59:39.536Z,3.51
2023-02-06T09:02:08.259Z,3.60
2023-02-06T09:04:37.709Z,3.75
2023-02-06T09:07:04.729Z,3.89
2023-02-06T09:09:31.240Z,4.00
2023-02-06T09:12:02.200Z,4.13
2023-02-06T09:14:29.422Z,4.26
2023-02-06T09:16:58.123Z,4.39
2023-02-06T09:19:26.098Z,4.54
2023-02-06T09:21:52.943Z,4.66
2023-02-06T09:24:19.949Z,4.77
2023-02-06T09:26:59.006Z,4.87
2023-02-06T09:29:28.897Z,4.92
2023-02-06T09:31:57.344Z,4.98
2023-02-06T09:34:25.922Z,5.02
2023-02-06T09:36:54.761Z,5.13
2023-02-06T09:39:21.608Z,5.22
2023-02-06T09:41:52.325Z,5.23
2023-02-06T09:44:27.424Z,5.23
2023-02-06T09:47:15.864Z,5.28
2023-02-06T09:49:52.955Z,5.33
2023-02-06T09:53:02.584Z,5.42
2023-02-06T09:55:35.232Z,5.50
2023-02-06T09:58:20.653Z,5.57
2023-02-06T10:01:26.092Z,5.58
2023-02-06T10:04:01.838Z,5.64
2023-02-06T10:06:35.832Z,5.65
2023-02-06T10:09:27.128Z,5.68
2023-02-06T10:12:01.801Z,5.62
2023-02-06T10:14:46.304Z,5.60
2023-02-06T10:17:25.857Z,5.59
2023-02-06T10:20:01.683Z,5.57
2023-02-06T10:22:38.983Z,5.54
2023-02-06T10:25:27.313Z,5.51
2023-02-06T10:27:59.899Z,5.52
2023-02-06T10:30:59.196Z,5.54
2023-02-06T10:33:43.176Z,5.65
2023-02-06T10:36:39.531Z,5.80
2023-02-06T10:39:18.108Z,5.93
2023-02-06T10:41:55.330Z,5.98
2023-02-06T10:44:24.585Z,6.01
2023-02-06T10:46:54.173Z,6.02
2023-02-06T10:49:30.382Z,6.10
2023-02-06T10:52:01.138Z,6.14
2023-02-06T10:54:35.248Z,6.23
2023-02-06T10:57:02.253Z,6.34
2023-02-06T10:59:33.953Z,6.37
2023-02-06T11:02:23.916Z,6.45
2023-02-06T11:04:58.756Z,6.58
2023-02-06T11:07:47.456Z,6.67
2023-02-06T11:10:17.314Z,6.84
2023-02-06T11:13:12.628Z,6.99
2023-02-06T11:15:46.232Z,6.94
2023-02-06T11:18:17.806Z,7.12
2023-02-06T11:20:46.420Z,7.17
2023-02-06T11:23:18.073Z,7.33
2023-02-06T11:25:46.220Z,7.50
2023-02-06T11:28:16.082Z,7.66
2023-02-06T11:30:55.250Z,7.60
2023-02-06T11:33:27.032Z,7.52
2023-02-06T11:35:59.820Z,7.43
2023-02-06T11:38:29.534Z,7.36
2023-02-06T11:40:56.056Z,7.36
2023-02-06T11:43:26.060Z,7.54
2023-02-06T11:46:08.467Z,7.60
2023-02-06T11:48:47.314Z,7.59
2023-02-06T11:51:15.196Z,7.60
2023-02-06T11:54:02.255Z,7.47
2023-02-06T11:56:30.822Z,7.29
2023-02-06T11:59:14.630Z,7.18
2023-02-06T12:01:44.737Z,7.13
2023-02-06T12:04:34.041Z,7.19
2023-02-06T12:07:30.386Z,7.32
2023-02-06T12:09:57.249Z,7.49
2023-02-06T12:12:29.810Z,7.50
2023-02-06T12:15:29.538Z,7.48
2023-02-06T12:17:56.665Z,7.54
2023-02-06T12:20:27.961Z,7.40
2023-02-06T12:22:59.044Z,7.31
2023-02-06T12:25:38.293Z,7.35
2023-02-06T12:28:20.630Z,7.51
2023-02-06T12:31:04.767Z,7.57
2023-02-06T12:33:40.499Z,7.63
2023-02-06T12:36:17.357Z,7.73
2023-02-06T12:38:47.011Z,7.71
2023-02-06T12:41:32.051Z,7.77
2023-02-06T12:44:05.265Z,7.58
2023-02-06T12:46:32.163Z,7.31
2023-02-06T12:49:22.545Z,7.29
2023-02-06T12:51:55.263Z,7.27
2023-02-06T12:54:29.823Z,7.43
2023-02-06T12:57:03.657Z,7.63
2023-02-06T13:00:07.552Z,7.69
2023-02-06T13:02:46.215Z,7.91
2023-02-06T13:05:24.906Z,7.89
2023-02-06T13:07:54.225Z,7.88
2023-02-06T13:10:25.873Z,7.92
2023-02-06T13:12:58.516Z,8.00
2023-02-06T13:15:27.564Z,8.19
2023-02-06T13:17:55.872Z,8.32
2023-02-06T13:20:24.830Z,8.43
2023-02-06T13:23:14.599Z,8.29
2023-02-06T13:25:41.100Z,8.06
2023-02-06T13:28:22.777Z,7.90
2023-02-06T13:31:10.600Z,7.86
2023-02-06T13:33:43.793Z,7.98
2023-02-06T13:36:18.145Z,8.25
2023-02-06T13:38:44.764Z,8.12
2023-02-06T13:41:28.965Z,7.84
2023-02-06T13:44:06.582Z,7.71
2023-02-06T13:46:58.622Z,7.52
2023-02-06T13:49:43.360Z,7.43
2023-02-06T13:52:30.870Z,7.35
2023-02-06T13:55:20.931Z,7.46
2023-02-06T13:58:06.634Z,7.60
2023-02-06T14:00:39.467Z,7.92
2023-02-06T14:03:13.393Z,8.07
2023-02-06T14:05:45.573Z,8.23
2023-02-06T14:08:46.791Z,8.06
2023-02-06T14:11:34.617Z,7.95
2023-02-06T14:14:31.788Z,7.76
2023-02-06T14:17:41.447Z,7.69
2023-02-06T14:20:17.271Z,7.68
2023-02-06T14:22:51.011Z,7.58
2023-02-06T14:25:36.549Z,7.57
2023-02-06T14:28:19.228Z,7.49
2023-02-06T14:31:04.886Z,7.43
2023-02-06T14:33:34.476Z,7.36
2023-02-06T14:36:15.834Z,7.35
2023-02-06T14:38:45.277Z,7.31
2023-02-06T14:41:12.175Z,7.32
2023-02-06T14:43:43.045Z,7.35
2023-02-06T14:46:15.798Z,7.34
2023-02-06T14:48:49.736Z,7.27
2023-02-06T14:51:31.555Z,7.21
2023-02-06T14:54:02.190Z,7.16
2023-02-06T14:56:32.355Z,7.17
2023-02-06T14:59:14.106Z,7.19
2023-02-06T15:01:42.377Z,7.24
2023-02-06T15:04:22.320Z,7.27
2023-02-06T15:06:57.798Z,7.28
2023-02-06T15:09:34.416Z,7.22
2023-02-06T15:12:06.254Z,7.19
2023-02-06T15:14:35.330Z,7.16
2023-02-06T15:17:03.501Z,7.11
2023-02-06T15:19:32.618Z,7.09
2023-02-06T15:22:19.279Z,7.02
2023-02-06T15:24:53.360Z,6.88
2023-02-06T15:27:37.444Z,6.76
2023-02-06T15:30:22.000Z,6.76
2023-02-06T15:32:51.518Z,6.73
2023-02-06T15:35:33.245Z,6.71
2023-02-06T15:38:10.303Z,6.74
2023-02-06T15:40:39.266Z,6.78
2023-02-06T15:43:06.222Z,6.84
2023-02-06T15:45:36.255Z,6.85
2023-02-06T15:48:25.820Z,6.82
2023-02-06T15:51:15.427Z,6.80
2023-02-06T15:53:43.793Z,6.78
2023-02-06T15:56:32.115Z,6.77
2023-02-06T15:59:02.721Z,6.75
2023-02-06T16:01:31.939Z,6.68
2023-02-06T16:04:06.013Z,6.61
2023-02-06T16:06:32.570Z,6.54
2023-02-06T16:09:02.798Z,6.43
2023-02-06T16:11:50.639Z,6.30
2023-02-06T16:14:39.634Z,6.17
2023-02-06T16:17:15.389Z,6.13
2023-02-06T16:19:56.170Z,6.07
2023-02-06T16:22:26.876Z,5.94
2023-02-06T16:25:11.576Z,5.83
2023-02-06T16:27:44.060Z,5.72
2023-02-06T16:30:49.157Z,5.67
2023-02-06T16:33:32.048Z,5.60
2023-02-06T16:35:58.979Z,5.58
2023-02-06T16:38:25.543Z,5.54
2023-02-06T16:40:52.581Z,5.50
2023-02-06T16:43:20.114Z,5.48
2023-02-06T16:45:49.279Z,5.49
2023-02-06T16:48:17.689Z,5.50
2023-02-06T16:50:45.293Z,5.48
2023-02-06T16:53:24.933Z,5.46
2023-02-06T16:55:51.682Z,5.44
2023-02-06T16:58:21.627Z,5.37
2023-02-06T17:00:48.939Z,5.35
2023-02-06T17:03:17.628Z,5.34
2023-02-06T17:05:50.226Z,5.36
2023-02-06T17:08:18.769Z,5.35
2023-02-06T17:10:46.816Z,5.35
2023-02-06T17:13:18.543Z,5.33
2023-02-06T17:15:47.146Z,5.27
2023-02-06T17:18:16.619Z,5.21
2023-02-06T17:20:46.014Z,5.15
2023-02-06T17:23:12.791Z,5.06
2023-02-06T17:25:40.346Z,4.95
2023-02-06T17:28:09.146Z,4.89
2023-02-06T17:30:37.985Z,4.82
2023-02-06T17:33:06.449Z,4.74
2023-02-06T17:35:36.669Z,4.66
2023-02-06T17:38:08.072Z,4.54
2023-02-06T17:40:36.670Z,4.43
2023-02-06T17:43:04.702Z,4.37
2023-02-06T17:45:31.857Z,4.26
2023-02-06T17:47:58.561Z,4.14
2023-02-06T17:50:27.069Z,4.05
2023-02-06T17:52:55.617Z,4.01
2023-02-06T17:55:23.782Z,3.97
2023-02-06T17:57:50.585Z,3.93
2023-02-06T18:00:19.463Z,3.88
2023-02-06T18:02:46.476Z,3.78
2023-02-06T18:05:13.031Z,3.69
2023-02-06T18:07:40.547Z,3.59
2023-02-06T18:10:09.017Z,3.52
2023-02-06T18:12:35.556Z,3.47
2023-02-06T18:15:02.196Z,3.41
2023-02-06T18:17:28.827Z,3.35
2023-02-06T18:19:55.335Z,3.31
2023-02-06T18:22:22.205Z,3.24
2023-02-06T18:24:50.128Z,3.19
2023-02-06T18:27:17.804Z,3.15
2023-02-06T18:29:50.636Z,3.11
2023-02-06T18:32:18.567Z,3.02
2023-02-06T18:34:45.596Z,2.87
2023-02-06T18:37:12.206Z,2.78
2023-02-06T18:39:39.610Z,2.76
2023-02-06T18:42:24.615Z,2.74
2023-02-06T18:44:51.228Z,2.67
2023-02-06T18:47:18.940Z,2.59
2023-02-06T18:49:45.932Z,2.49
2023-02-06T18:52:12.568Z,2.41
2023-02-06T18:54:39.626Z,2.39
2023-02-06T18:57:06.513Z,2.38
2023-02-06T18:59:33.109Z,2.34
2023-02-06T19:01:59.683Z,2.32
2023-02-06T19:04:26.179Z,2.27
2023-02-06T19:06:52.963Z,2.17
2023-02-06T19:09:20.101Z,2.07
2023-02-06T19:11:48.288Z,2.05
2023-02-06T19:14:16.951Z,2.05
2023-02-06T19:16:47.387Z,2.03
2023-02-06T19:19:14.491Z,1.99
2023-02-06T19:21:43.608Z,1.94
2023-02-06T19:24:15.318Z,1.91
2023-02-06T19:26:42.791Z,1.86
2023-02-06T19:29:11.241Z,1.79
2023-02-06T19:31:40.492Z,1.75
2023-02-06T19:34:07.282Z,1.69
2023-02-06T19:36:33.880Z,1.64
2023-02-06T19:39:03.974Z,1.51
2023-02-06T19:41:32.760Z,1.43
2023-02-06T19:44:03.393Z,1.37
2023-02-06T19:46:30.082Z,1.36
2023-02-06T19:48:56.826Z,1.35
2023-02-06T19:51:29.639Z,1.31
2023-02-06T19:53:58.034Z,1.21
2023-02-06T19:56:26.135Z,1.12
2023-02-06T19:58:59.745Z,1.09
2023-02-06T20:01:29.556Z,1.09
2023-02-06T20:04:01.086Z,1.10
2023-02-06T20:06:29.506Z,1.03
2023-02-06T20:08:56.820Z,0.95
2023-02-06T20:11:23.748Z,0.88
2023-02-06T20:13:55.631Z,0.78
2023-02-06T20:16:29.093Z,0.74
2023-02-06T20:18:56.491Z,0.68
2023-02-06T20:21:29.495Z,0.62
2023-02-06T20:23:58.239Z,0.65
2023-02-06T20:26:27.946Z,0.60
2023-02-06T20:28:54.822Z,0.58
2023-02-06T20:31:22.290Z,0.57
2023-02-06T20:33:50.785Z,0.53
2023-02-06T20:36:20.228Z,0.47
2023-02-06T20:38:56.179Z,0.37
2023-02-06T20:41:26.258Z,0.33
2023-02-06T20:43:53.237Z,0.37
2023-02-06T20:46:21.459Z,0.39
2023-02-06T20:48:56.212Z,0.33
2023-02-06T20:51:23.089Z,0.24
2023-02-06T20:53:50.306Z,0.20
2023-02-06T20:56:17.493Z,0.16
2023-02-06T20:58:44.332Z,0.13
2023-02-06T21:01:14.941Z,0.15
2023-02-06T21:03:41.889Z,0.07
2023-02-06T21:06:08.789Z,0.00
2023-02-06T21:08:35.383Z,-0.01
2023-02-06T21:11:02.256Z,0.03
2023-02-06T21:13:29.067Z,0.04
2023-02-06T21:15:57.664Z,0.01
2023-02-06T21:18:27.966Z,0.00
2023-02-06T21:20:56.250Z,-0.04
2023-02-06T21:23:24.465Z,-0.11
2023-02-06T21:25:52.894Z,-0.21
2023-02-06T21:28:20.245Z,-0.28
2023-02-06T21:30:47.857Z,-0.30
2023-02-06T21:33:15.072Z,-0.32
2023-02-06T21:35:51.912Z,-0.38
2023-02-06T21:38:20.049Z,-0.42
2023-02-06T21:40:46.891Z,-0.45
2023-02-06T21:43:15.242Z,-0.41
2023-02-06T21:45:43.226Z,-0.41
2023-02-06T21:48:10.083Z,-0.42
2023-02-06T21:50:41.280Z,-0.50
2023-02-06T21:53:08.972Z,-0.57
2023-02-06T21:55:41.968Z,-0.58
2023-02-06T21:58:08.998Z,-0.57
2023-02-06T22:00:35.654Z,-0.59
2023-02-06T22:03:02.501Z,-0.63
2023-02-06T22:05:29.225Z,-0.72
2023-02-06T22:07:56.786Z,-0.78
2023-02-06T22:10:23.317Z,-0.84
2023-02-06T22:12:50.028Z,-0.85
2023-02-06T22:15:16.726Z,-0.83
2023-02-06T22:17:43.180Z,-0.80
2023-02-06T22:20:09.984Z,-0.84
2023-02-06T22:22:38.680Z,-0.86
2023-02-06T22:25:05.833Z,-0.86
2023-02-06T22:27:33.014Z,-0.94
2023-02-06T22:29:59.530Z,-1.00
2023-02-06T22:32:26.059Z,-1.03
2023-02-06T22:34:53.936Z,-0.99
2023-02-06T22:37:20.471Z,-0.99
2023-02-06T22:39:46.991Z,-0.98
2023-02-06T22:42:13.510Z,-1.00
2023-02-06T22:44:40.048Z,-1.03
2023-02-06T22:47:06.552Z,-1.04
2023-02-06T22:49:33.046Z,-1.05
2023-02-06T22:51:59.588Z,-1.07
2023-02-06T22:54:26.181Z,-1.06
2023-02-06T22:56:52.655Z,-1.15
2023-02-06T22:59:24.735Z,-1.16
2023-02-06T23:01:58.567Z,-1.16
2023-02-06T23:04:30.125Z,-1.17
2023-02-06T23:06:57.116Z,-1.18
2023-02-06T23:09:29.392Z,-1.21
2023-02-06T23:11:58.387Z,-1.28
2023-02-06T23:14:26.239Z,-1.31
2023-02-06T23:16:52.801Z,-1.29
2023-02-06T23:19:20.673Z,-1.29
2023-02-06T23:21:48.920Z,-1.29
2023-02-06T23:24:15.989Z,-1.31
2023-02-06T23:26:45.718Z,-1.38
2023-02-06T23:29:17.762Z,-1.40
2023-02-06T23:31:46.084Z,-1.50
2023-02-06T23:34:13.994Z,-1.47
2023-02-06T23:36:40.548Z,-1.47
2023-02-06T23:39:07.049Z,-1.47
2023-02-06T23:41:34.275Z,-1.47
2023-02-06T23:44:04.273Z,-1.54
2023-02-06T23:46:32.418Z,-1.63
2023-02-06T23:48:59.048Z,-1.66
2023-02-06T23:51:26.193Z,-1.62
2023-02-06T23:53:53.135Z,-1.62
2023-02-06T23:56:25.545Z,-1.61
2023-02-06T23:58:53.682Z,-1.65
